Time;durP1;ratioP1;P1;durP2;ratioP2;P2;SDS_P1;SDS_P2;PMS_P1;PMS_P2;Temp;Humidity;BMP_temperature;BMP_pressure;BME280_temperature;BME280_humidity;BME280_pressure;Samples;Min_cycle;Max_cycle;Signal;HPM_P1;HPM_P2
2023/02/09 00:01:17;;;;;;;14.70;7.60;;;;;;;-3.65;95.02;102976.97;5013366;28;20503;-65
2023/02/09 00:03:44;;;;;;;13.83;6.63;;;;;;;-3.68;95.37;102979.09;5013352;28;20033;-66
2023/02/09 00:06:12;;;;;;;13.40;7.10;;;;;;;-3.70;95.40;102978.91;5013256;28;20105;-62
2023/02/09 00:08:38;;;;;;;16.87;7.53;;;;;;;-3.82;95.15;102952.91;5012978;28;20026;-66
2023/02/09 00:11:08;;;;;;;14.27;7.13;;;;;;;-3.77;95.60;102968.69;5013319;28;20026;-66
2023/02/09 00:13:35;;;;;;;14.13;7.00;;;;;;;-3.91;94.94;102947.53;5012970;28;20025;-66
2023/02/09 00:16:01;;;;;;;14.53;6.63;;;;;;;-3.87;94.81;102940.41;4995600;28;20025;-65
2023/02/09 00:18:30;;;;;;;13.10;7.07;;;;;;;-3.54;94.24;102991.94;5012853;28;20476;-67
2023/02/09 00:21:00;;;;;;;12.63;6.00;;;;;;;-3.48;94.05;102987.72;4996523;28;20030;-65
2023/02/09 00:23:27;;;;;;;13.00;7.70;;;;;;;-3.45;93.65;102992.25;4961628;28;20152;-68
2023/02/09 00:25:52;;;;;;;15.10;7.20;;;;;;;-3.48;93.04;102972.56;5013248;28;20030;-65
2023/02/09 00:28:18;;;;;;;12.10;6.77;;;;;;;-3.26;93.47;102994.03;5009012;28;20397;-66
2023/02/09 00:30:44;;;;;;;15.17;7.60;;;;;;;-3.38;92.88;102978.88;5005444;28;20040;-67
2023/02/09 00:33:10;;;;;;;16.20;7.53;;;;;;;-3.35;92.96;102990.28;5011977;28;20034;-62
2023/02/09 00:35:41;;;;;;;15.17;7.40;;;;;;;-3.51;92.95;102951.06;4999825;28;20034;-63
2023/02/09 00:38:07;;;;;;;17.13;7.53;;;;;;;-3.28;93.35;103004.63;5013828;28;20105;-66
2023/02/09 00:40:36;;;;;;;15.83;7.17;;;;;;;-3.44;93.60;102981.47;5032762;28;20045;-64
2023/02/09 00:43:02;;;;;;;13.93;7.10;;;;;;;-3.32;93.41;103005.84;5032526;28;20025;-66
2023/02/09 00:45:28;;;;;;;13.80;7.40;;;;;;;-3.41;92.97;102969.25;5031348;28;20661;-66
2023/02/09 00:47:54;;;;;;;14.33;7.50;;;;;;;-3.23;92.50;102977.47;5014705;28;20033;-66
2023/02/09 00:50:20;;;;;;;14.50;7.03;;;;;;;-3.03;92.40;102995.25;5032304;28;20025;-66
2023/02/09 00:52:45;;;;;;;15.23;7.67;;;;;;;-3.05;92.43;102990.00;5031815;28;20399;-63
2023/02/09 00:55:11;;;;;;;13.43;7.27;;;;;;;-3.15;92.11;102990.41;5032441;28;20108;-67
2023/02/09 00:57:37;;;;;;;13.37;7.07;;;;;;;-3.19;92.83;102982.22;5032154;28;20041;-66
2023/02/09 01:00:07;;;;;;;14.67;7.07;;;;;;;-3.52;93.14;102932.47;5032311;28;20112;-67
2023/02/09 01:02:33;;;;;;;15.57;7.10;;;;;;;-3.59;93.38;102927.31;5019330;28;20032;-71
2023/02/09 01:04:58;;;;;;;14.67;7.67;;;;;;;-3.49;94.04;102980.88;5032003;28;20037;-70
2023/02/09 01:07:24;;;;;;;17.57;7.30;;;;;;;-3.60;94.92;102974.38;5032946;28;20821;-67
2023/02/09 01:09:49;;;;;;;16.37;7.43;;;;;;;-3.58;95.32;102970.47;5044710;28;20032;-66
2023/02/09 01:12:15;;;;;;;17.03;7.73;;;;;;;-3.70;95.72;102972.94;5031536;28;20044;-67
2023/02/09 01:14:42;;;;;;;12.87;6.23;;;;;;;-3.84;96.47;102979.53;4980364;28;20132;-68
2023/02/09 01:17:08;;;;;;;15.43;7.87;;;;;;;-3.88;96.87;102973.91;5031451;28;20030;-67
2023/02/09 01:19:34;;;;;;;17.10;7.90;;;;;;;-3.96;97.22;102953.56;5013296;28;20028;-67
2023/02/09 01:21:59;;;;;;;14.10;7.30;;;;;;;-3.87;97.66;102968.16;5031314;28;20099;-68
2023/02/09 01:24:25;;;;;;;14.57;7.47;;;;;;;-3.95;97.68;102962.03;5031584;28;20075;-68
2023/02/09 01:26:53;;;;;;;16.30;7.77;;;;;;;-3.93;97.72;102953.09;5031638;28;20034;-67
2023/02/09 01:29:19;;;;;;;15.07;6.90;;;;;;;-3.80;97.68;102955.63;4995351;28;20037;-68
2023/02/09 01:31:46;;;;;;;14.63;7.13;;;;;;;-3.96;97.26;102953.56;5031338;28;20031;-67
2023/02/09 01:34:14;;;;;;;13.13;7.43;;;;;;;-3.81;97.76;102961.41;5029210;28;20025;-67
2023/02/09 01:36:39;;;;;;;16.00;7.33;;;;;;;-3.80;97.83;102951.50;5026411;28;20107;-68
2023/02/09 01:39:05;;;;;;;16.13;7.93;;;;;;;-4.06;97.34;102935.38;5030318;28;20512;-67
2023/02/09 01:41:32;;;;;;;12.67;7.00;;;;;;;-3.92;97.68;102948.22;5030435;28;20037;-67
2023/02/09 01:44:02;;;;;;;16.77;8.17;;;;;;;-4.03;98.10;102952.56;5030644;28;20029;-66
2023/02/09 01:46:30;;;;;;;17.87;8.23;;;;;;;-3.91;98.63;102951.69;5030702;28;20514;-67
2023/02/09 01:49:17;;;;;;;17.67;8.50;;;;;;;-4.06;97.81;102951.41;5030583;28;20464;-68
2023/02/09 01:51:47;;;;;;;15.73;8.20;;;;;;;-3.98;98.59;102974.25;5031049;28;20087;-66
2023/02/09 01:54:18;;;;;;;17.63;8.20;;;;;;;-4.00;98.41;102955.47;5030981;28;20518;-67
2023/02/09 01:56:50;;;;;;;17.03;8.57;;;;;;;-3.93;98.54;102958.13;5028862;28;20030;-66
2023/02/09 01:59:16;;;;;;;20.20;8.20;;;;;;;-4.04;98.53;102925.50;5022706;28;20041;-64
2023/02/09 02:01:42;;;;;;;16.27;7.97;;;;;;;-3.81;98.17;102954.72;5023667;28;20115;-68
2023/02/09 02:04:08;;;;;;;17.33;8.10;;;;;;;-3.87;97.80;102953.00;5030991;28;20037;-67
2023/02/09 02:06:34;;;;;;;17.97;8.20;;;;;;;-3.92;98.52;102944.81;5031140;28;20547;-66
2023/02/09 02:09:10;;;;;;;18.07;7.40;;;;;;;-4.02;97.80;102917.41;5031036;28;20048;-67
2023/02/09 02:11:36;;;;;;;18.53;9.17;;;;;;;-4.06;98.47;102923.66;4997827;28;20048;-69
2023/02/09 02:14:02;;;;;;;14.73;7.43;;;;;;;-3.95;98.46;102936.81;5030991;28;20047;-66
2023/02/09 02:16:40;;;;;;;16.10;8.57;;;;;;;-3.98;98.71;102932.25;5030912;28;20033;-66
2023/02/09 02:19:37;;;;;;;14.80;7.45;;;;;;;-3.96;98.72;102942.59;5014527;28;20026;-66
2023/02/09 02:22:05;;;;;;;14.53;7.27;;;;;;;-3.92;98.51;102944.81;5030724;28;20029;-64
2023/02/09 02:25:08;;;;;;;16.47;8.30;;;;;;;-3.91;98.96;102932.38;5030830;28;20470;-67
2023/02/09 02:28:04;;;;;;;16.70;8.43;;;;;;;-3.85;98.33;102932.31;4969704;28;20046;-64
2023/02/09 02:31:08;;;;;;;17.10;8.23;;;;;;;-3.91;98.10;102927.34;4969604;28;20162;-66
2023/02/09 02:34:09;;;;;;;17.10;8.53;;;;;;;-3.87;98.44;102926.16;4969456;28;20035;-63
2023/02/09 02:36:52;;;;;;;18.87;9.00;;;;;;;-3.83;98.34;102935.03;4969620;28;20046;-69
2023/02/09 02:39:50;;;;;;;16.87;8.77;;;;;;;-3.85;98.74;102923.81;4969612;28;20047;-63
2023/02/09 02:42:50;;;;;;;19.33;10.10;;;;;;;-3.83;98.29;102919.91;4969417;28;20050;-69
2023/02/09 02:45:41;;;;;;;17.67;8.70;;;;;;;-3.79;98.21;102912.94;4969471;28;20039;-64
2023/02/09 02:48:09;;;;;;;19.43;10.27;;;;;;;-3.67;97.58;102920.34;4969301;28;20545;-70
2023/02/09 02:50:38;;;;;;;19.60;9.23;;;;;;;-3.57;97.61;102924.28;4969448;28;20097;-63
2023/02/09 02:53:05;;;;;;;17.17;8.70;;;;;;;-3.52;96.82;102922.38;4969375;28;20122;-63
2023/02/09 02:55:34;;;;;;;17.70;8.73;;;;;;;-3.58;96.76;102924.06;4969281;28;20046;-64
2023/02/09 02:58:05;;;;;;;18.38;9.23;;;;;;;-3.59;96.95;102915.59;4969392;28;20023;-63
2023/02/09 03:00:40;;;;;;;20.67;9.00;;;;;;;-3.52;96.25;102918.94;4969217;28;20038;-64
2023/02/09 03:03:12;;;;;;;17.00;8.10;;;;;;;-3.49;95.94;102920.28;4999905;28;20038;-64
2023/02/09 03:05:38;;;;;;;16.67;9.03;;;;;;;-3.45;96.06;102912.38;5029704;28;20033;-64
2023/02/09 03:08:05;;;;;;;15.83;8.27;;;;;;;-3.35;95.93;102912.00;5029950;28;20096;-63
2023/02/09 03:10:37;;;;;;;17.40;8.97;;;;;;;-3.33;95.36;102917.22;5030166;28;20036;-63
2023/02/09 03:13:10;;;;;;;19.23;8.93;;;;;;;-3.27;95.24;102918.03;5030258;28;20033;-67
2023/02/09 03:15:57;;;;;;;17.83;8.80;;;;;;;-3.21;95.09;102908.75;5030138;28;20041;-63
2023/02/09 03:18:35;;;;;;;17.30;8.33;;;;;;;-3.28;95.33;102912.09;5030118;28;20032;-70
2023/02/09 03:21:10;;;;;;;19.67;9.33;;;;;;;-3.39;96.08;102897.09;5030026;28;20035;-67
2023/02/09 03:24:00;;;;;;;16.33;8.43;;;;;;;-3.35;95.49;102906.00;5030183;28;20029;-64
2023/02/09 03:26:33;;;;;;;19.27;8.27;;;;;;;-3.47;95.17;102917.94;5019894;28;20519;-67
2023/02/09 03:29:00;;;;;;;17.87;9.87;;;;;;;-3.43;95.26;102912.56;5010167;28;20608;-65
2023/02/09 03:31:27;;;;;;;19.07;9.13;;;;;;;-3.44;95.41;102901.56;5010649;28;20101;-64
2023/02/09 03:33:56;;;;;;;19.87;8.70;;;;;;;-3.44;94.97;102908.22;4975545;28;20042;-66
2023/02/09 03:36:22;;;;;;;18.38;9.10;;;;;;;-3.57;94.83;102883.88;5010327;28;20022;-67
2023/02/09 03:38:47;;;;;;;17.47;9.03;;;;;;;-3.44;94.75;102899.06;5010450;28;20053;-63
2023/02/09 03:41:13;;;;;;;20.80;8.87;;;;;;;-3.46;94.82;102897.03;5010281;28;20778;-65
2023/02/09 03:46:22;;;;;;;19.23;8.33;;;;;;;-3.49;94.85;102897.53;5010148;28;20080;-63
2023/02/09 03:48:49;;;;;;;16.47;8.37;;;;;;;-3.48;95.04;102899.34;5010192;28;20479;-68
2023/02/09 03:51:15;;;;;;;16.47;8.80;;;;;;;-4.02;95.46;102835.78;5010246;28;20400;-63
2023/02/09 03:53:40;;;;;;;17.87;8.73;;;;;;;-3.91;96.68;102897.06;5010201;28;20034;-66
2023/02/09 03:56:08;;;;;;;17.73;8.90;;;;;;;-4.34;97.05;102837.41;5010076;28;20035;-66
2023/02/09 03:58:37;;;;;;;16.70;8.23;;;;;;;-4.21;97.67;102886.28;4993177;28;20040;-68
2023/02/09 04:01:06;;;;;;;17.40;8.70;;;;;;;-4.35;98.21;102886.03;5010474;28;20034;-67
2023/02/09 04:03:32;;;;;;;17.67;9.68;;;;;;;-4.35;98.48;102878.47;5010017;28;20025;-63
2023/02/09 04:05:58;;;;;;;18.57;8.27;;;;;;;-4.43;98.53;102873.28;5010126;28;20508;-62
2023/02/09 04:08:23;;;;;;;16.73;9.37;;;;;;;-4.52;98.75;102879.63;5010068;28;20170;-64
2023/02/09 04:10:48;;;;;;;17.23;8.83;;;;;;;-4.45;98.52;102871.25;5009930;28;20026;-67
2023/02/09 04:13:14;;;;;;;17.97;8.50;;;;;;;-4.50;98.61;102865.59;5009851;28;20049;-63
2023/02/09 04:15:39;;;;;;;21.33;9.67;;;;;;;-4.52;99.04;102878.69;5009956;28;20503;-63
2023/02/09 04:18:05;;;;;;;18.27;10.00;;;;;;;-4.59;98.70;102880.38;5022947;28;20018;-69
2023/02/09 04:20:30;;;;;;;19.77;9.27;;;;;;;-4.60;99.05;102875.13;5029942;28;20033;-66
2023/02/09 04:22:55;;;;;;;22.57;9.37;;;;;;;-4.75;99.08;102873.94;5032881;28;20573;-70
2023/02/09 04:25:21;;;;;;;16.87;9.47;;;;;;;-4.86;100.00;102869.94;5032994;28;20503;-67
2023/02/09 04:27:46;;;;;;;17.07;8.47;;;;;;;-4.91;100.00;102868.41;5033125;28;20030;-67
2023/02/09 04:30:12;;;;;;;19.00;9.80;;;;;;;-4.91;100.00;102870.91;5033333;28;20029;-67
2023/02/09 04:32:38;;;;;;;17.60;8.30;;;;;;;-4.89;100.00;102864.50;5032957;28;20093;-69
2023/02/09 04:35:03;;;;;;;16.83;8.40;;;;;;;-4.88;100.00;102866.31;5032787;28;20133;-64
2023/02/09 04:37:29;;;;;;;18.70;9.63;;;;;;;-4.79;100.00;102866.66;5032655;28;20025;-64
2023/02/09 04:39:54;;;;;;;18.33;9.37;;;;;;;-4.80;99.90;102865.75;5033256;28;20049;-66
2023/02/09 04:42:21;;;;;;;18.80;9.30;;;;;;;-5.14;99.77;102820.81;5032665;28;20060;-68
2023/02/09 04:44:46;;;;;;;20.00;9.37;;;;;;;-4.97;99.95;102872.59;5033103;28;20030;-64
2023/02/09 04:47:13;;;;;;;22.07;9.73;;;;;;;-4.93;100.00;102862.25;5032592;28;20540;-64
2023/02/09 04:49:39;;;;;;;23.20;10.63;;;;;;;-5.03;100.00;102875.19;5032730;28;20038;-69
2023/02/09 04:52:04;;;;;;;19.27;8.93;;;;;;;-5.37;100.00;102851.28;5032566;28;20029;-65
2023/02/09 04:54:30;;;;;;;20.77;9.63;;;;;;;-5.40;100.00;102860.91;5032705;28;20029;-67
2023/02/09 04:59:40;;;;;;;17.47;8.90;;;;;;;-5.47;100.00;102869.94;5032661;28;20502;-66
2023/02/09 05:02:06;;;;;;;18.27;9.30;;;;;;;-5.58;100.00;102874.38;5032464;28;20029;-67
2023/02/09 05:04:32;;;;;;;20.43;8.47;;;;;;;-5.63;100.00;102861.81;5032451;28;20061;-65
2023/02/09 05:06:57;;;;;;;21.00;9.00;;;;;;;-5.64;100.00;102870.09;5032274;28;20036;-63
2023/02/09 05:09:22;;;;;;;20.27;9.07;;;;;;;-5.97;100.00;102816.84;4981290;28;20049;-63
2023/02/09 05:11:49;;;;;;;19.37;9.20;;;;;;;-5.65;100.00;102866.66;5031993;28;20030;-63
2023/02/09 05:14:15;;;;;;;16.30;8.63;;;;;;;-5.63;100.00;102865.28;5031901;28;20037;-66
2023/02/09 05:16:40;;;;;;;21.33;10.23;;;;;;;-5.74;100.00;102865.38;5032162;28;20442;-68
2023/02/09 05:19:08;;;;;;;20.80;9.40;;;;;;;-5.73;100.00;102872.19;5032025;28;20030;-65
2023/02/09 05:21:33;;;;;;;18.80;8.97;;;;;;;-5.72;100.00;102867.41;5032045;28;20407;-66
2023/02/09 05:23:59;;;;;;;18.87;8.53;;;;;;;-5.90;100.00;102868.22;5028668;28;20047;-69
2023/02/09 05:26:24;;;;;;;16.77;8.27;;;;;;;-6.28;100.00;102807.53;5012107;28;20484;-66
2023/02/09 05:28:50;;;;;;;16.53;8.70;;;;;;;-5.94;100.00;102857.53;5012228;28;20030;-64
2023/02/09 05:31:17;;;;;;;17.40;8.37;;;;;;;-6.52;100.00;102770.69;5011662;28;20393;-68
2023/02/09 05:33:43;;;;;;;24.00;9.97;;;;;;;-5.90;100.00;102884.94;5011909;28;20030;-65
2023/02/09 05:36:11;;;;;;;18.47;9.60;;;;;;;-5.97;100.00;102863.03;5012231;28;20109;-61
2023/02/09 05:38:37;;;;;;;25.30;11.43;;;;;;;-5.84;100.00;102873.22;5011704;28;20069;-66
2023/02/09 05:41:08;;;;;;;21.40;10.00;;;;;;;-5.88;100.00;102878.50;5012186;28;20071;-67
2023/02/09 05:43:34;;;;;;;18.87;8.90;;;;;;;-6.05;100.00;102876.16;5011874;28;20488;-66
2023/02/09 05:45:59;;;;;;;16.90;8.57;;;;;;;-5.95;100.00;102881.75;5011724;28;20018;-62
2023/02/09 05:48:25;;;;;;;21.43;10.53;;;;;;;-6.07;100.00;102862.44;5011486;28;20408;-63
2023/02/09 05:50:50;;;;;;;16.10;8.13;;;;;;;-6.15;100.00;102873.94;5030011;28;20038;-64
2023/02/09 05:53:16;;;;;;;18.20;8.43;;;;;;;-6.37;100.00;102835.72;5031701;28;20040;-64
2023/02/09 05:55:42;;;;;;;14.30;7.77;;;;;;;-5.99;100.00;102891.19;5031651;28;20458;-67
2023/02/09 05:58:08;;;;;;;14.37;7.07;;;;;;;-6.03;100.00;102892.38;5031522;28;20040;-64
2023/02/09 06:00:34;;;;;;;15.43;7.97;;;;;;;-6.20;100.00;102887.47;5031363;28;20025;-67
2023/02/09 06:02:59;;;;;;;16.83;7.60;;;;;;;-6.28;100.00;102887.97;5026942;28;20487;-66
2023/02/09 06:05:26;;;;;;;17.80;8.00;;;;;;;-6.24;100.00;102881.09;5030431;28;20492;-70
2023/02/09 06:07:51;;;;;;;17.77;8.93;;;;;;;-6.49;100.00;102844.00;4999545;28;20033;-64
2023/02/09 06:10:17;;;;;;;17.63;7.60;;;;;;;-6.33;100.00;102879.75;5019027;28;20044;-66
2023/02/09 06:12:43;;;;;;;15.80;7.33;;;;;;;-6.21;100.00;102868.94;5021839;28;20381;-65
2023/02/09 06:15:09;;;;;;;14.33;7.53;;;;;;;-5.96;100.00;102891.63;5019435;28;20041;-66
2023/02/09 06:17:35;;;;;;;15.20;7.57;;;;;;;-5.95;100.00;102881.75;5021440;28;20029;-66
2023/02/09 06:20:01;;;;;;;17.37;7.43;;;;;;;-5.90;100.00;102887.47;5021372;28;20395;-63
2023/02/09 06:22:28;;;;;;;14.20;7.03;;;;;;;-5.83;100.00;102900.22;5019393;28;20030;-63
2023/02/09 06:24:53;;;;;;;17.27;7.43;;;;;;;-5.65;100.00;102896.84;5021043;28;20506;-66
2023/02/09 06:27:19;;;;;;;17.20;7.60;;;;;;;-5.57;100.00;102901.38;5020982;28;20030;-65
2023/02/09 06:29:44;;;;;;;17.10;7.50;;;;;;;-5.55;100.00;102899.06;5019432;28;20026;-66
2023/02/09 06:32:10;;;;;;;19.03;8.13;;;;;;;-5.53;100.00;102900.19;5026143;28;20349;-64
2023/02/09 06:34:35;;;;;;;15.73;8.93;;;;;;;-5.42;100.00;102904.19;5006191;28;20037;-65
2023/02/09 06:37:01;;;;;;;18.13;8.53;;;;;;;-5.26;100.00;102907.25;5023766;28;20104;-68
2023/02/09 06:39:26;;;;;;;18.83;8.10;;;;;;;-5.11;100.00;102922.00;5028659;28;20057;-67
2023/02/09 06:41:52;;;;;;;18.57;8.57;;;;;;;-4.99;100.00;102907.66;5030186;28;20044;-64
2023/02/09 06:44:18;;;;;;;17.97;8.23;;;;;;;-4.80;99.83;102913.63;4995967;28;20041;-63
2023/02/09 06:46:43;;;;;;;19.80;9.73;;;;;;;-4.65;98.67;102906.34;4978970;28;20470;-63
2023/02/09 06:49:09;;;;;;;18.57;9.60;;;;;;;-4.46;98.40;102909.78;5030692;28;20041;-63
2023/02/09 06:51:34;;;;;;;21.33;9.83;;;;;;;-4.20;97.23;102910.78;5030526;28;20068;-63
2023/02/09 06:54:00;;;;;;;23.40;10.60;;;;;;;-4.01;96.07;102913.28;5030429;28;20466;-64
2023/02/09 06:56:25;;;;;;;25.27;11.57;;;;;;;-3.85;95.32;102906.16;5030758;28;20522;-65
2023/02/09 06:58:50;;;;;;;22.17;9.00;;;;;;;-3.79;94.61;102907.91;5030132;28;20033;-66
2023/02/09 07:01:16;;;;;;;16.00;7.97;;;;;;;-3.78;94.14;102924.84;5030369;28;20475;-63
2023/02/09 07:03:42;;;;;;;17.83;8.43;;;;;;;-3.78;94.95;102918.91;5030538;28;20034;-67
2023/02/09 07:06:10;;;;;;;18.30;8.80;;;;;;;-3.77;95.15;102924.16;5030379;28;20029;-66
2023/02/09 07:08:37;;;;;;;14.70;7.70;;;;;;;-3.71;95.30;102906.41;5030403;28;20052;-67
2023/02/09 07:11:05;;;;;;;15.23;8.30;;;;;;;-3.36;95.18;102914.31;5030267;28;20037;-66
2023/02/09 07:13:31;;;;;;;16.07;8.70;;;;;;;-3.19;93.99;102916.53;5030143;28;20111;-66
2023/02/09 07:15:58;;;;;;;15.27;7.83;;;;;;;-3.14;93.70;102910.44;5030045;28;20092;-63
2023/02/09 07:18:24;;;;;;;17.53;8.50;;;;;;;-3.05;92.80;102911.66;5030327;28;20025;-67
2023/02/09 07:20:56;;;;;;;17.67;8.03;;;;;;;-2.93;91.88;102915.81;5030437;28;20416;-66
2023/02/09 07:23:22;;;;;;;17.80;9.00;;;;;;;-2.85;89.99;102924.38;5030051;28;20495;-63
2023/02/09 07:25:47;;;;;;;17.47;8.50;;;;;;;-2.93;89.72;102867.78;5030164;28;20040;-66
2023/02/09 07:28:13;;;;;;;14.97;7.60;;;;;;;-2.63;88.69;102914.50;5029951;28;20022;-65
2023/02/09 07:30:40;;;;;;;18.47;8.23;;;;;;;-2.53;89.22;102904.91;5030017;28;20048;-68
2023/02/09 07:33:07;;;;;;;15.47;7.73;;;;;;;-2.26;88.26;102910.75;5029763;28;20119;-69
2023/02/09 07:35:33;;;;;;;14.90;7.67;;;;;;;-2.21;86.11;102920.75;5030264;28;20037;-64
2023/02/09 07:37:59;;;;;;;17.10;7.87;;;;;;;-2.03;86.02;102918.72;5030365;28;20033;-69
2023/02/09 07:40:25;;;;;;;13.93;7.23;;;;;;;-1.84;85.73;102911.88;5030296;28;20033;-64
2023/02/09 07:42:51;;;;;;;18.60;8.27;;;;;;;-1.84;85.52;102907.69;5029897;28;20033;-65
2023/02/09 07:45:16;;;;;;;15.37;7.60;;;;;;;-2.01;84.84;102864.16;5029909;28;20061;-66
2023/02/09 07:47:42;;;;;;;14.13;7.63;;;;;;;-1.65;83.22;102915.06;5024893;28;20080;-63
2023/02/09 07:50:08;;;;;;;11.27;6.73;;;;;;;-1.62;79.69;102912.91;5030218;28;20101;-68
2023/02/09 07:52:33;;;;;;;12.47;7.40;;;;;;;-1.33;78.93;102930.88;5029759;28;20041;-67
2023/02/09 07:54:59;;;;;;;13.60;6.97;;;;;;;-1.23;77.63;102928.75;5030927;28;20033;-68
2023/02/09 07:57:26;;;;;;;14.13;6.40;;;;;;;-1.18;78.16;102919.19;5033790;28;20472;-66
2023/02/09 07:59:53;;;;;;;14.17;7.33;;;;;;;-1.40;77.19;102867.47;5033361;28;20028;-63
2023/02/09 08:02:27;;;;;;;13.00;6.90;;;;;;;-1.02;76.88;102922.00;5016628;28;20025;-65
2023/02/09 08:04:57;;;;;;;13.60;7.30;;;;;;;-1.00;77.70;102916.38;5016227;28;20025;-63
2023/02/09 08:07:24;;;;;;;13.87;6.73;;;;;;;-1.03;77.71;102910.03;5033557;28;20018;-67
2023/02/09 08:09:49;;;;;;;10.67;6.17;;;;;;;-1.05;77.34;102919.97;5033484;28;20123;-62
2023/02/09 08:12:15;;;;;;;12.90;7.43;;;;;;;-1.16;77.40;102897.44;5033284;28;20404;-64
2023/02/09 08:14:46;;;;;;;11.53;5.97;;;;;;;-1.07;77.12;102896.06;5033301;28;20029;-68
2023/02/09 08:17:18;;;;;;;11.47;6.07;;;;;;;-0.83;76.48;102918.44;5033435;28;20017;-66
2023/02/09 08:20:00;;;;;;;11.70;6.23;;;;;;;-0.76;75.97;102912.50;5032877;28;20487;-67
2023/02/09 08:22:31;;;;;;;11.23;6.10;;;;;;;-0.66;74.26;102917.06;5032981;28;20037;-65
2023/02/09 08:24:58;;;;;;;13.47;6.13;;;;;;;-1.12;73.80;102799.88;5033482;28;20049;-66
2023/02/09 08:27:24;;;;;;;14.07;7.93;;;;;;;-0.40;75.07;102899.00;5033017;28;20064;-64
2023/02/09 08:29:50;;;;;;;11.83;6.47;;;;;;;-0.23;74.56;102909.53;5033434;28;20053;-63
2023/02/09 08:32:16;;;;;;;17.23;6.20;;;;;;;-0.27;73.63;102907.34;5033281;28;20021;-67
2023/02/09 08:34:41;;;;;;;11.53;5.33;;;;;;;-0.32;73.85;102895.75;5033173;28;20463;-66
2023/02/09 08:37:07;;;;;;;12.50;6.00;;;;;;;-0.22;73.93;102910.47;5032975;28;20467;-66
2023/02/09 08:39:32;;;;;;;10.20;5.70;;;;;;;-0.09;72.40;102910.28;5032587;28;20499;-68
2023/02/09 08:41:57;;;;;;;11.90;5.63;;;;;;;0.05;73.05;102902.69;5032864;28;20025;-66
2023/02/09 08:44:23;;;;;;;13.17;7.57;;;;;;;-0.10;72.13;102852.59;5032776;28;20064;-69
2023/02/09 08:46:49;;;;;;;11.13;5.67;;;;;;;0.15;70.02;102900.50;5032772;28;20032;-66
2023/02/09 08:49:15;;;;;;;12.00;5.80;;;;;;;0.22;70.23;102908.84;4981652;28;20037;-67
2023/02/09 08:51:40;;;;;;;10.93;5.30;;;;;;;-0.18;70.00;102862.75;5014848;28;20498;-65
2023/02/09 08:54:06;;;;;;;13.63;5.90;;;;;;;-0.05;69.52;102917.53;5033052;28;20036;-63
2023/02/09 08:56:31;;;;;;;11.60;5.87;;;;;;;-0.05;69.98;102899.75;5032662;28;20029;-68
2023/02/09 08:58:56;;;;;;;13.17;6.80;;;;;;;-0.13;71.25;102857.34;5032500;28;20040;-66
2023/02/09 09:01:22;;;;;;;11.53;5.90;;;;;;;0.28;70.92;102924.81;5032204;28;20505;-66
2023/02/09 09:03:48;;;;;;;12.13;5.67;;;;;;;0.22;69.73;102919.91;5031587;28;20051;-65
2023/02/09 09:06:13;;;;;;;12.00;6.03;;;;;;;0.19;71.06;102931.31;5031523;28;20112;-66
2023/02/09 09:08:40;;;;;;;11.53;6.40;;;;;;;0.22;71.68;102926.63;5014839;28;20475;-63
2023/02/09 09:11:11;;;;;;;14.20;7.10;;;;;;;0.25;71.10;102904.09;5032573;28;20029;-65
2023/02/09 09:13:37;;;;;;;14.80;8.10;;;;;;;0.30;71.54;102909.03;5032253;28;20036;-63
2023/02/09 09:16:02;;;;;;;18.87;9.33;;;;;;;0.24;69.22;102870.19;5032366;28;20026;-63
2023/02/09 09:18:28;;;;;;;11.90;5.77;;;;;;;0.51;69.45;102918.97;5032303;28;20572;-62
2023/02/09 09:20:55;;;;;;;12.37;5.73;;;;;;;0.34;68.77;102919.53;5012597;28;20480;-65
2023/02/09 09:23:20;;;;;;;11.73;6.00;;;;;;;0.48;68.16;102911.91;5012445;28;20444;-67
2023/02/09 09:25:45;;;;;;;12.87;6.97;;;;;;;0.65;70.34;102903.72;5012179;28;20092;-62
2023/02/09 09:28:11;;;;;;;13.90;7.10;;;;;;;0.85;70.24;102890.75;5012283;28;20030;-66
2023/02/09 09:30:37;;;;;;;11.83;6.23;;;;;;;1.00;69.77;102893.22;5012051;28;20034;-66
2023/02/09 09:33:02;;;;;;;13.00;8.07;;;;;;;1.03;70.09;102884.31;5012015;28;20026;-66
2023/02/09 09:35:29;;;;;;;11.57;6.40;;;;;;;1.23;68.64;102889.13;5011987;28;20080;-67
2023/02/09 09:37:57;;;;;;;12.90;7.07;;;;;;;1.37;68.04;102883.06;5012107;28;20084;-65
2023/02/09 09:40:26;;;;;;;13.77;6.53;;;;;;;1.37;68.26;102872.91;5012183;28;20088;-66
2023/02/09 09:42:55;;;;;;;12.80;7.13;;;;;;;1.48;67.66;102869.00;5011915;28;20428;-66
2023/02/09 09:45:24;;;;;;;15.97;7.40;;;;;;;1.55;67.35;102871.50;5011955;28;20034;-66
2023/02/09 09:47:50;;;;;;;16.87;7.70;;;;;;;1.60;69.48;102870.38;5011671;28;20774;-67
2023/02/09 09:50:28;;;;;;;19.30;11.50;;;;;;;1.58;67.22;102873.47;5011733;28;20083;-68
2023/02/09 09:53:04;;;;;;;14.80;8.60;;;;;;;1.62;67.79;102862.94;5011745;28;20021;-69
2023/02/09 09:55:31;;;;;;;13.07;8.37;;;;;;;1.65;65.15;102850.50;4993897;28;20025;-70
2023/02/09 09:58:03;;;;;;;14.63;9.43;;;;;;;1.56;68.66;102840.22;5011665;28;20023;-63
2023/02/09 10:00:36;;;;;;;12.70;7.30;;;;;;;1.56;66.60;102839.31;5011826;28;20064;-66
2023/02/09 10:03:03;;;;;;;13.40;6.70;;;;;;;1.57;66.33;102841.09;5011528;28;20504;-66
2023/02/09 10:05:36;;;;;;;13.23;6.43;;;;;;;1.82;67.82;102826.00;5011547;28;20388;-66
2023/02/09 10:08:27;;;;;;;15.03;7.80;;;;;;;2.00;66.93;102822.03;5011599;28;20034;-66
2023/02/09 10:10:55;;;;;;;12.20;6.47;;;;;;;2.25;65.96;102825.63;5011475;28;20042;-66
2023/02/09 10:13:29;;;;;;;11.52;5.43;;;;;;;2.42;64.27;102830.00;5011246;28;20399;-67
2023/02/09 10:15:56;;;;;;;18.88;8.48;;;;;;;2.30;67.54;102783.69;5011240;28;20080;-64
2023/02/09 10:18:25;;;;;;;55.17;25.95;;;;;;;2.57;65.28;102807.78;5011228;28;20033;-63
2023/02/09 10:21:00;;;;;;;35.45;18.77;;;;;;;2.67;62.92;102810.56;5011459;28;20026;-66
2023/02/09 10:23:35;;;;;;;16.30;8.23;;;;;;;2.52;61.35;102784.34;5011049;28;20073;-66
2023/02/09 10:26:23;;;;;;;13.13;6.60;;;;;;;2.57;60.15;102800.16;5011296;28;20026;-66
2023/02/09 10:28:55;;;;;;;11.77;6.47;;;;;;;2.58;59.16;102790.09;5011101;28;20034;-64
2023/02/09 10:31:31;;;;;;;12.52;7.13;;;;;;;2.74;57.03;102799.38;5011474;28;20399;-66
2023/02/09 10:34:10;;;;;;;10.85;6.03;;;;;;;2.82;55.83;102803.66;5011245;28;20053;-66
2023/02/09 10:36:54;;;;;;;11.90;6.80;;;;;;;2.69;54.67;102781.03;5026067;28;20541;-63
2023/02/09 10:39:22;;;;;;;10.98;6.70;;;;;;;3.01;53.64;102790.28;5009590;28;20524;-67
2023/02/09 10:41:52;;;;;;;12.43;5.82;;;;;;;3.16;51.05;102786.75;5019586;28;20138;-66
2023/02/09 10:44:33;;;;;;;16.33;6.67;;;;;;;3.10;50.74;102777.56;5019850;28;20378;-66
2023/02/09 10:47:10;;;;;;;12.35;6.40;;;;;;;3.04;51.44;102783.84;5017768;28;20030;-70
2023/02/09 10:49:38;;;;;;;12.55;8.43;;;;;;;3.27;49.73;102775.13;5012454;28;20049;-64
2023/02/09 10:52:11;;;;;;;9.38;5.32;;;;;;;3.38;49.30;102773.69;4977038;28;20616;-67
2023/02/09 10:54:40;;;;;;;10.05;5.43;;;;;;;3.08;49.37;102778.31;5015399;28;20063;-65
2023/02/09 10:57:22;;;;;;;9.82;5.43;;;;;;;2.84;48.76;102763.91;5022772;28;20065;-65
2023/02/09 11:00:01;;;;;;;10.32;4.78;;;;;;;2.64;49.62;102723.56;5017098;28;20450;-63
2023/02/09 11:02:47;;;;;;;12.68;5.00;;;;;;;3.00;47.60;102748.53;5029099;28;20052;-66
2023/02/09 11:05:21;;;;;;;8.70;4.38;;;;;;;2.89;45.77;102749.06;4948379;29;20039;-62
2023/02/09 11:08:21;;;;;;;10.50;5.45;;;;;;;3.09;48.07;102748.63;4943423;29;20048;-64
2023/02/09 11:11:07;;;;;;;7.53;4.47;;;;;;;3.13;45.34;102742.16;4889887;29;20458;-66
2023/02/09 11:13:34;;;;;;;9.97;4.57;;;;;;;2.98;46.43;102734.72;4891616;29;20088;-64
2023/02/09 11:16:14;;;;;;;14.15;5.30;;;;;;;3.18;48.21;102731.69;4891715;29;20049;-63
2023/02/09 11:18:45;;;;;;;12.38;5.28;;;;;;;3.13;45.18;102721.72;4891855;29;20120;-65
2023/02/09 11:21:25;;;;;;;13.85;9.13;;;;;;;3.40;45.09;102737.34;4892127;29;20053;-66
2023/02/09 11:24:04;;;;;;;8.70;5.85;;;;;;;3.63;44.24;102741.34;4891612;29;20494;-67
2023/02/09 11:26:38;;;;;;;10.35;4.10;;;;;;;3.78;43.23;102726.66;4891748;29;20523;-67
2023/02/09 11:29:15;;;;;;;13.45;8.18;;;;;;;3.77;42.47;102731.63;4891568;29;20116;-65
2023/02/09 11:31:58;;;;;;;9.40;5.13;;;;;;;3.78;41.93;102728.34;4895574;29;20036;-64